Oaktown, Indiana
Current Conditions -  °F | °C
As of 1:53 PM on Thursday 23 Oct 2014 (Local Time) from KLWV Reporting Station
Clear Clear  
Wind Chill: 16°   Ceiling: Unl
Heat Index: 16°   Visibility: 10mi
Dew Point:   Wind: 7mph
Humidity: 50%   Direction: 190°S
Pressure: 30.17"   Gusts: NA
Location:  38.87°N, 87.44°W
Report Text: KLWV 231853Z AUTO 19006KT 10SM CLR 16/06 A3017 RMK AO2 SLP218 T01610056
Loading
Personal Weather Stations






























Interactive Weather Map
Tropical Storm Tracking
New forecast layout! Learn more

10-Day Weather Forecast

Advertisements
Track Severe Weather on mobile